createdAt,value
2017-04-07T00:01:00.394Z,1021.42
2017-04-07T00:02:11.403Z,1021.41
2017-04-07T00:03:22.402Z,1021.38
2017-04-07T00:04:33.402Z,1021.34
2017-04-07T00:05:44.424Z,1021.35
2017-04-07T00:06:55.872Z,1021.28
2017-04-07T00:08:06.869Z,1021.28
2017-04-07T00:09:17.859Z,1021.22
2017-04-07T00:10:28.865Z,1021.22
2017-04-07T00:11:40.065Z,1021.22
2017-04-07T00:12:51.113Z,1021.16
2017-04-07T00:14:02.095Z,1021.19
2017-04-07T00:15:13.099Z,1021.14
2017-04-07T00:16:24.098Z,1021.18
2017-04-07T00:17:35.091Z,1021.2
2017-04-07T00:18:46.342Z,1021.19
2017-04-07T00:19:57.743Z,1021.18
2017-04-07T00:21:08.943Z,1021.17
2017-04-07T00:22:20.141Z,1021.17
2017-04-07T00:23:31.143Z,1021.13
2017-04-07T00:24:42.401Z,1021.15
2017-04-07T00:25:53.600Z,1021.06
2017-04-07T00:27:04.599Z,1021.08
2017-04-07T00:28:15.800Z,1021.06
2017-04-07T00:29:26.791Z,1021.07
2017-04-07T00:30:37.789Z,1021.04
2017-04-07T00:31:48.981Z,1021.05
2017-04-07T00:33:00.185Z,1021.02
2017-04-07T00:34:11.177Z,1020.97
2017-04-07T00:35:22.231Z,1020.93
2017-04-07T00:36:33.244Z,1020.86
2017-04-07T00:37:44.233Z,1020.85
2017-04-07T00:38:55.438Z,1020.8
2017-04-07T00:40:06.626Z,1020.79
2017-04-07T00:41:17.889Z,1020.75
2017-04-07T00:42:28.895Z,1020.71
2017-04-07T00:43:39.894Z,1020.76
2017-04-07T00:44:50.889Z,1020.8
2017-04-07T00:46:01.907Z,1020.77
2017-04-07T00:47:13.346Z,1020.75
2017-04-07T00:48:24.351Z,1020.75
2017-04-07T00:49:35.352Z,1020.71
2017-04-07T00:50:46.337Z,1020.73
2017-04-07T00:51:57.533Z,1020.72
2017-04-07T00:53:08.590Z,1020.7
2017-04-07T00:54:19.591Z,1020.72
2017-04-07T00:55:30.592Z,1020.72
2017-04-07T00:56:41.610Z,1020.75
2017-04-07T00:57:52.616Z,1020.73
2017-04-07T00:59:03.709Z,1020.7
2017-04-07T01:00:14.732Z,1020.68
2017-04-07T01:01:25.731Z,1020.7
2017-04-07T01:02:36.743Z,1020.67
2017-04-07T01:03:47.942Z,1020.65
2017-04-07T01:04:59.191Z,1020.59
2017-04-07T01:06:10.591Z,1020.63
2017-04-07T01:07:21.596Z,1020.6
2017-04-07T01:08:32.612Z,1020.61
2017-04-07T01:09:43.599Z,1020.57
2017-04-07T01:10:54.849Z,1020.52
2017-04-07T01:12:05.852Z,1020.57
2017-04-07T01:13:16.855Z,1020.54
2017-04-07T01:14:27.852Z,1020.55
2017-04-07T01:15:39.074Z,1020.53
2017-04-07T01:16:50.331Z,1020.53
2017-04-07T01:18:01.336Z,1020.51
2017-04-07T01:19:12.339Z,1020.47
2017-04-07T01:20:23.339Z,1020.47
2017-04-07T01:21:34.543Z,1020.46
2017-04-07T01:22:45.610Z,1020.44
2017-04-07T01:23:56.605Z,1020.42
2017-04-07T01:25:08.005Z,1020.42
2017-04-07T01:26:18.995Z,1020.44
2017-04-07T01:27:29.997Z,1020.39
2017-04-07T01:28:41.050Z,1020.42
2017-04-07T01:29:52.053Z,1020.38
2017-04-07T01:31:03.067Z,1020.41
2017-04-07T01:32:14.058Z,1020.4
2017-04-07T01:33:25.059Z,1020.38
2017-04-07T01:34:36.140Z,1020.34
2017-04-07T01:35:47.336Z,1020.39
2017-04-07T01:36:58.325Z,1020.4
2017-04-07T01:38:09.332Z,1020.42
2017-04-07T01:39:20.327Z,1020.34
2017-04-07T01:40:31.382Z,1020.37
2017-04-07T01:41:42.386Z,1020.38
2017-04-07T01:42:53.388Z,1020.34
2017-04-07T01:44:04.386Z,1020.41
2017-04-07T01:45:15.589Z,1020.39
2017-04-07T01:46:27.235Z,1020.35
2017-04-07T01:47:38.228Z,1020.3
2017-04-07T01:48:49.249Z,1020.33
2017-04-07T01:50:00.463Z,1020.32
2017-04-07T01:51:11.465Z,1020.32
2017-04-07T01:52:22.509Z,1020.27
2017-04-07T01:53:33.503Z,1020.28
2017-04-07T01:54:44.500Z,1020.28
2017-04-07T01:55:55.508Z,1020.23
2017-04-07T01:57:06.716Z,1020.25
2017-04-07T01:58:17.781Z,1020.26
2017-04-07T01:59:28.772Z,1020.33
2017-04-07T02:00:39.773Z,1020.27
2017-04-07T02:01:50.782Z,1020.27
2017-04-07T02:03:01.789Z,1020.26
2017-04-07T02:04:12.835Z,1020.24
2017-04-07T02:05:24.031Z,1020.23
2017-04-07T02:06:35.037Z,1020.17
2017-04-07T02:07:46.055Z,1020.2
2017-04-07T02:08:57.059Z,1020.2
2017-04-07T02:10:08.107Z,1020.2
2017-04-07T02:11:19.101Z,1020.23
2017-04-07T02:12:30.313Z,1020.25
2017-04-07T02:13:41.314Z,1020.2
2017-04-07T02:14:52.321Z,1020.19
2017-04-07T02:16:03.362Z,1020.19
2017-04-07T02:17:14.357Z,1020.16
2017-04-07T02:18:25.355Z,1020.19
2017-04-07T02:19:36.352Z,1020.16
2017-04-07T02:20:47.344Z,1020.13
2017-04-07T02:21:58.603Z,1020.15
2017-04-07T02:23:09.816Z,1020.2
2017-04-07T02:24:20.810Z,1020.17
2017-04-07T02:25:31.800Z,1020.17
2017-04-07T02:26:42.803Z,1020.16
2017-04-07T02:27:53.856Z,1020.18
2017-04-07T02:29:05.059Z,1020.22
2017-04-07T02:30:16.062Z,1020.17
2017-04-07T02:31:27.056Z,1020.16
2017-04-07T02:32:38.048Z,1020.19
2017-04-07T02:33:49.101Z,1020.2
2017-04-07T02:35:00.094Z,1020.18
2017-04-07T02:36:11.093Z,1020.18
2017-04-07T02:37:22.100Z,1020.17
2017-04-07T02:38:33.096Z,1020.21
2017-04-07T02:39:44.350Z,1020.15
2017-04-07T02:40:55.347Z,1020.14
2017-04-07T02:42:06.549Z,1020.19
2017-04-07T02:43:17.549Z,1020.2
2017-04-07T02:44:28.537Z,1020.2
2017-04-07T02:45:39.540Z,1020.16
2017-04-07T02:46:50.737Z,1020.12
2017-04-07T02:48:01.728Z,1020.11
2017-04-07T02:49:12.929Z,1020.16
2017-04-07T02:50:23.982Z,1020.14
2017-04-07T02:51:34.980Z,1020.12
2017-04-07T02:52:46.366Z,1020.09
2017-04-07T02:53:57.355Z,1020.09
2017-04-07T02:55:08.364Z,1020.05
2017-04-07T02:56:19.609Z,1020.09
2017-04-07T02:57:30.609Z,1020.07
2017-04-07T02:58:41.806Z,1020.05
2017-04-07T02:59:53.011Z,1019.97
2017-04-07T03:01:04.004Z,1020.01
2017-04-07T03:02:15.055Z,1020.02
2017-04-07T03:03:26.050Z,1020
2017-04-07T03:04:37.068Z,1020.02
2017-04-07T03:05:48.059Z,1019.96
2017-04-07T03:06:59.262Z,1020
2017-04-07T03:08:10.709Z,1020.01
2017-04-07T03:09:21.709Z,1019.96
2017-04-07T03:10:32.719Z,1019.99
2017-04-07T03:11:43.705Z,1020
2017-04-07T03:12:54.914Z,1019.98
2017-04-07T03:14:05.975Z,1019.93
2017-04-07T03:15:16.986Z,1019.96
2017-04-07T03:16:27.980Z,1019.92
2017-04-07T03:17:39.191Z,1019.89
2017-04-07T03:18:50.193Z,1019.9
2017-04-07T03:20:01.643Z,1019.85
2017-04-07T03:21:12.637Z,1019.86
2017-04-07T03:22:23.641Z,1019.78
2017-04-07T03:23:34.843Z,1019.78
2017-04-07T03:24:45.844Z,1019.8
2017-04-07T03:25:56.897Z,1019.73
2017-04-07T03:27:07.900Z,1019.75
2017-04-07T03:28:19.096Z,1019.77
2017-04-07T03:29:30.098Z,1019.77
2017-04-07T03:30:41.105Z,1019.77
2017-04-07T03:31:52.580Z,1019.78
2017-04-07T03:33:03.576Z,1019.81
2017-04-07T03:34:14.591Z,1019.79
2017-04-07T03:35:25.592Z,1019.78
2017-04-07T03:36:36.784Z,1019.76
2017-04-07T03:37:47.854Z,1019.71
2017-04-07T03:38:58.851Z,1019.7
2017-04-07T03:40:09.847Z,1019.69
2017-04-07T03:41:20.854Z,1019.66
2017-04-07T03:42:31.850Z,1019.68
2017-04-07T03:43:43.093Z,1019.68
2017-04-07T03:44:54.091Z,1019.68
2017-04-07T03:46:05.095Z,1019.64
2017-04-07T03:47:16.087Z,1019.62
2017-04-07T03:48:27.086Z,1019.65
2017-04-07T03:49:38.138Z,1019.63
2017-04-07T03:50:49.138Z,1019.61
2017-04-07T03:52:00.136Z,1019.66
2017-04-07T03:53:11.138Z,1019.57
2017-04-07T03:54:22.133Z,1019.62
2017-04-07T03:55:33.182Z,1019.62
2017-04-07T03:56:44.181Z,1019.61
2017-04-07T03:57:55.185Z,1019.62
2017-04-07T03:59:06.197Z,1019.64
2017-04-07T04:00:17.197Z,1019.66
2017-04-07T04:01:28.450Z,1019.62
2017-04-07T04:02:39.446Z,1019.63
2017-04-07T04:03:50.443Z,1019.63
2017-04-07T04:05:01.439Z,1019.6
2017-04-07T04:06:12.451Z,1019.66
2017-04-07T04:07:23.513Z,1019.63
2017-04-07T04:08:34.707Z,1019.72
2017-04-07T04:09:45.705Z,1019.67
2017-04-07T04:10:56.704Z,1019.68
2017-04-07T04:12:07.704Z,1019.68
2017-04-07T04:13:18.755Z,1019.63
2017-04-07T04:14:29.763Z,1019.65
2017-04-07T04:15:40.767Z,1019.61
2017-04-07T04:16:51.769Z,1019.66
2017-04-07T04:18:02.766Z,1019.63
2017-04-07T04:19:13.808Z,1019.65
2017-04-07T04:20:24.799Z,1019.66
2017-04-07T04:21:35.993Z,1019.67
2017-04-07T04:22:47.400Z,1019.67
2017-04-07T04:23:58.398Z,1019.7
2017-04-07T04:25:09.656Z,1019.67
2017-04-07T04:26:20.662Z,1019.69
2017-04-07T04:27:31.664Z,1019.72
2017-04-07T04:28:42.662Z,1019.72
2017-04-07T04:29:53.849Z,1019.7
2017-04-07T04:31:04.895Z,1019.74
2017-04-07T04:32:16.090Z,1019.75
2017-04-07T04:33:27.088Z,1019.76
2017-04-07T04:34:38.101Z,1019.72
2017-04-07T04:35:49.104Z,1019.79
2017-04-07T04:37:00.371Z,1019.75
2017-04-07T04:38:11.371Z,1019.74
2017-04-07T04:39:22.373Z,1019.73
2017-04-07T04:40:33.362Z,1019.71
2017-04-07T04:41:44.396Z,1019.7
2017-04-07T04:42:55.443Z,1019.73
2017-04-07T04:44:06.452Z,1019.75
2017-04-07T04:45:17.449Z,1019.72
2017-04-07T04:46:28.645Z,1019.77
2017-04-07T04:47:39.839Z,1019.76
2017-04-07T04:48:51.091Z,1019.76
2017-04-07T04:50:02.101Z,1019.77
2017-04-07T04:51:13.300Z,1019.76
2017-04-07T04:52:24.302Z,1019.75
2017-04-07T04:53:35.538Z,1019.72
2017-04-07T04:54:46.593Z,1019.72
2017-04-07T04:55:57.585Z,1019.7
2017-04-07T04:57:08.589Z,1019.73
2017-04-07T04:58:19.602Z,1019.68
2017-04-07T04:59:30.597Z,1019.68
2017-04-07T05:00:41.600Z,1019.7
2017-04-07T05:01:52.602Z,1019.66
2017-04-07T05:03:03.630Z,1019.66
2017-04-07T05:04:14.839Z,1019.66
2017-04-07T05:05:26.127Z,1019.67
2017-04-07T05:06:37.124Z,1019.65
2017-04-07T05:07:48.121Z,1019.64
2017-04-07T05:08:59.117Z,1019.66
2017-04-07T05:10:10.113Z,1019.66
2017-04-07T05:11:21.165Z,1019.67
2017-04-07T05:12:32.161Z,1019.66
2017-04-07T05:13:43.160Z,1019.65
2017-04-07T05:14:54.169Z,1019.66
2017-04-07T05:16:05.167Z,1019.66
2017-04-07T05:17:16.218Z,1019.68
2017-04-07T05:18:27.200Z,1019.65
2017-04-07T05:19:38.202Z,1019.67
2017-04-07T05:20:49.198Z,1019.62
2017-04-07T05:22:00.198Z,1019.63
2017-04-07T05:23:11.462Z,1019.65
2017-04-07T05:24:22.459Z,1019.61
2017-04-07T05:25:33.454Z,1019.63
2017-04-07T05:26:44.446Z,1019.67
2017-04-07T05:27:55.436Z,1019.64
2017-04-07T05:29:06.480Z,1019.63
2017-04-07T05:30:17.482Z,1019.7
2017-04-07T05:31:28.494Z,1019.67
2017-04-07T05:32:39.493Z,1019.66
2017-04-07T05:33:50.699Z,1019.68
2017-04-07T05:35:01.954Z,1019.72
2017-04-07T05:36:12.955Z,1019.69
2017-04-07T05:37:24.152Z,1019.71
2017-04-07T05:38:35.152Z,1019.71
2017-04-07T05:39:46.155Z,1019.71
2017-04-07T05:40:57.612Z,1019.74
2017-04-07T05:42:08.622Z,1019.74
2017-04-07T05:43:19.833Z,1019.72
2017-04-07T05:44:30.834Z,1019.71
2017-04-07T05:45:41.844Z,1019.71
2017-04-07T05:46:53.092Z,1019.71
2017-04-07T05:48:04.088Z,1019.74
2017-04-07T05:49:15.094Z,1019.76
2017-04-07T05:50:26.085Z,1019.74
2017-04-07T05:51:37.285Z,1019.72
2017-04-07T05:52:48.324Z,1019.74
2017-04-07T05:53:59.336Z,1019.79
2017-04-07T05:55:10.343Z,1019.78
2017-04-07T05:56:21.337Z,1019.82
2017-04-07T05:57:32.349Z,1019.87
2017-04-07T05:58:43.598Z,1019.87
2017-04-07T05:59:54.599Z,1019.87
2017-04-07T06:01:05.611Z,1019.86
2017-04-07T06:02:16.616Z,1019.88
2017-04-07T06:03:27.604Z,1019.94
2017-04-07T06:04:38.651Z,1019.93
2017-04-07T06:05:49.647Z,1019.94
2017-04-07T06:07:00.662Z,1019.94
2017-04-07T06:08:11.662Z,1019.97
2017-04-07T06:09:22.668Z,1019.95
2017-04-07T06:10:33.922Z,1019.99
2017-04-07T06:11:44.916Z,1020.01
2017-04-07T06:12:56.102Z,1020
2017-04-07T06:14:07.107Z,1020.03
2017-04-07T06:15:18.315Z,1020.01
2017-04-07T06:16:29.562Z,1020.04
2017-04-07T06:17:40.558Z,1019.98
2017-04-07T06:18:51.554Z,1020.04
2017-04-07T06:20:02.556Z,1020.07
2017-04-07T06:21:13.555Z,1020.03
2017-04-07T06:22:24.606Z,1020.09
2017-04-07T06:23:35.811Z,1020.04
2017-04-07T06:24:47.009Z,1020
2017-04-07T06:25:58.005Z,1020.04
2017-04-07T06:27:09.207Z,1020.04
2017-04-07T06:28:20.454Z,1020.02
2017-04-07T06:29:31.657Z,1020.05
2017-04-07T06:30:42.660Z,1020.06
2017-04-07T06:31:53.676Z,1020.02
2017-04-07T06:33:04.669Z,1020.1
2017-04-07T06:34:15.719Z,1020.04
2017-04-07T06:35:26.915Z,1020.01
2017-04-07T06:36:37.910Z,1020.03
2017-04-07T06:37:48.912Z,1019.98
2017-04-07T06:38:59.905Z,1020.02
2017-04-07T06:40:10.954Z,1020.09
2017-04-07T06:41:21.956Z,1020.03
2017-04-07T06:42:32.959Z,1020.08
2017-04-07T06:43:44.166Z,1020
2017-04-07T06:44:55.168Z,1020.05
2017-04-07T06:46:06.222Z,1020.03
2017-04-07T06:47:17.418Z,1020.04
2017-04-07T06:48:28.424Z,1020.05
2017-04-07T06:49:39.421Z,1019.97
2017-04-07T06:50:50.424Z,1019.97
2017-04-07T06:52:01.685Z,1020.01
2017-04-07T06:53:12.695Z,1019.99
2017-04-07T06:54:23.689Z,1020
2017-04-07T06:55:34.694Z,1020.03
2017-04-07T06:56:45.900Z,1020.05
2017-04-07T06:57:57.159Z,1020
2017-04-07T06:59:08.370Z,1020.03
2017-04-07T07:00:19.380Z,1019.98
2017-04-07T07:01:30.386Z,1020.03
2017-04-07T07:02:41.422Z,1020.04
2017-04-07T07:03:52.680Z,1020.06
2017-04-07T07:05:03.693Z,1020.02
2017-04-07T07:06:14.693Z,1020.07
2017-04-07T07:07:25.890Z,1020.1
2017-04-07T07:08:36.884Z,1020.05
2017-04-07T07:09:48.118Z,1020.13
2017-04-07T07:10:59.314Z,1020.07
2017-04-07T07:12:10.513Z,1020.12
2017-04-07T07:13:21.722Z,1020.13
2017-04-07T07:14:32.713Z,1020.06
2017-04-07T07:15:43.714Z,1020.07
2017-04-07T07:16:54.718Z,1020.11
2017-04-07T07:18:05.717Z,1020.11
2017-04-07T07:19:16.711Z,1020.14
2017-04-07T07:20:27.959Z,1020.11
2017-04-07T07:21:38.954Z,1020.17
2017-04-07T07:22:49.956Z,1020.18
2017-04-07T07:24:00.966Z,1020.2
2017-04-07T07:25:12.162Z,1020.15
2017-04-07T07:26:23.214Z,1020.17
2017-04-07T07:27:34.221Z,1020.18
2017-04-07T07:28:45.430Z,1020.16
2017-04-07T07:29:56.627Z,1020.13
2017-04-07T07:31:07.633Z,1020.11
2017-04-07T07:32:18.626Z,1020.15
2017-04-07T07:33:29.626Z,1020.16
2017-04-07T07:34:40.657Z,1020.11
2017-04-07T07:35:51.656Z,1020.15
2017-04-07T07:37:02.740Z,1020.17
2017-04-07T07:38:13.744Z,1020.17
2017-04-07T07:39:24.751Z,1020.31
2017-04-07T07:40:35.741Z,1020.19
2017-04-07T07:41:46.940Z,1020.24
2017-04-07T07:42:57.990Z,1020.26
2017-04-07T07:44:09.016Z,1021.19
2017-04-07T07:45:20.032Z,1020.28
2017-04-07T07:46:31.246Z,1020.59
2017-04-07T07:47:42.244Z,1020.42
2017-04-07T07:48:53.895Z,1020.64
2017-04-07T07:50:04.891Z,1020.75
2017-04-07T07:51:15.903Z,1020.3
2017-04-07T07:52:26.900Z,1020.42
2017-04-07T07:53:37.896Z,1020.53
2017-04-07T07:54:48.959Z,1020.34
2017-04-07T07:55:59.952Z,1020.29
2017-04-07T07:57:11.166Z,1020.27
2017-04-07T07:58:22.173Z,1020.3
2017-04-07T07:59:33.186Z,1020.4
2017-04-07T08:00:44.399Z,1020.34
2017-04-07T08:01:55.406Z,1020.36
2017-04-07T08:03:06.407Z,1020.33
2017-04-07T08:04:17.420Z,1020.26
2017-04-07T08:05:28.667Z,1020.27
2017-04-07T08:06:39.866Z,1020.25
2017-04-07T08:07:50.899Z,1020.25
2017-04-07T08:09:01.906Z,1020.23
2017-04-07T08:10:12.926Z,1020.26
2017-04-07T08:11:24.389Z,1020.23
2017-04-07T08:12:35.393Z,1020.24
2017-04-07T08:13:46.387Z,1020.3
2017-04-07T08:14:57.394Z,1020.27
2017-04-07T08:16:08.416Z,1020.3
2017-04-07T08:17:19.478Z,1020.31
2017-04-07T08:18:30.677Z,1020.27
2017-04-07T08:19:41.675Z,1020.27
2017-04-07T08:20:52.674Z,1020.25
2017-04-07T08:22:03.705Z,1020.26
2017-04-07T08:23:14.760Z,1020.22
2017-04-07T08:24:25.761Z,1020.22
2017-04-07T08:25:36.768Z,1020.31
2017-04-07T08:26:47.777Z,1020.29
2017-04-07T08:27:58.780Z,1020.24
2017-04-07T08:29:09.841Z,1020.29
2017-04-07T08:30:20.852Z,1020.25
2017-04-07T08:31:31.863Z,1020.27
2017-04-07T08:32:42.866Z,1020.25
2017-04-07T08:33:53.870Z,1020.23
2017-04-07T08:35:04.921Z,1020.26
2017-04-07T08:36:15.921Z,1020.27
2017-04-07T08:37:26.930Z,1020.24
2017-04-07T08:38:37.932Z,1020.22
2017-04-07T08:39:48.938Z,1020.22
2017-04-07T08:41:00.190Z,1020.24
2017-04-07T08:42:11.198Z,1020.24
2017-04-07T08:43:22.398Z,1020.23
2017-04-07T08:44:33.601Z,1020.25
2017-04-07T08:45:44.602Z,1020.23
2017-04-07T08:46:55.863Z,1020.23
2017-04-07T08:48:06.869Z,1020.32
2017-04-07T08:49:18.064Z,1020.28
2017-04-07T08:50:29.058Z,1020.32
2017-04-07T08:51:40.075Z,1020.31
2017-04-07T08:52:51.336Z,1020.3
2017-04-07T08:54:02.339Z,1020.31
2017-04-07T08:55:13.347Z,1020.32
2017-04-07T08:56:24.346Z,1020.36
2017-04-07T08:57:35.348Z,1020.34
2017-04-07T08:58:46.393Z,1020.37
2017-04-07T08:59:57.398Z,1020.32
2017-04-07T09:01:08.398Z,1020.36
2017-04-07T09:02:19.396Z,1020.41
2017-04-07T09:03:30.386Z,1020.48
2017-04-07T09:04:41.649Z,1020.43
2017-04-07T09:05:52.651Z,1020.41
2017-04-07T09:07:03.672Z,1020.38
2017-04-07T09:08:14.667Z,1020.39
2017-04-07T09:09:25.671Z,1020.35
2017-04-07T09:10:36.727Z,1020.4
2017-04-07T09:11:47.932Z,1020.37
2017-04-07T09:12:58.935Z,1020.28
2017-04-07T09:14:10.171Z,1020.34
2017-04-07T09:15:21.566Z,1020.33
2017-04-07T09:16:32.615Z,1020.35
2017-04-07T09:17:43.614Z,1020.36
2017-04-07T09:18:54.616Z,1020.25
2017-04-07T09:20:05.623Z,1020.25
2017-04-07T09:21:16.639Z,1020.23
2017-04-07T09:22:27.685Z,1020.2
2017-04-07T09:23:38.894Z,1020.15
2017-04-07T09:24:49.900Z,1020.08
2017-04-07T09:26:00.903Z,1020.13
2017-04-07T09:27:11.909Z,1020.18
2017-04-07T09:28:23.364Z,1020.1
2017-04-07T09:29:34.363Z,1020.06
2017-04-07T09:30:45.396Z,1020.08
2017-04-07T09:31:56.609Z,1020
2017-04-07T09:33:07.610Z,1020.03
2017-04-07T09:34:18.658Z,1020.03
2017-04-07T09:35:29.660Z,1020.06
2017-04-07T09:36:40.672Z,1020.08
2017-04-07T09:37:51.682Z,1020.06
2017-04-07T09:39:02.682Z,1020.1
2017-04-07T09:40:14.131Z,1020.16
2017-04-07T09:41:25.328Z,1020.12
2017-04-07T09:42:36.330Z,1020.1
2017-04-07T09:43:47.332Z,1020.09
2017-04-07T09:44:58.341Z,1020.06
2017-04-07T09:46:09.596Z,1020.07
2017-04-07T09:47:20.599Z,1020.08
2017-04-07T09:48:31.596Z,1020.05
2017-04-07T09:49:42.611Z,1020.07
2017-04-07T09:50:53.613Z,1020.07
2017-04-07T09:52:04.868Z,1020.09
2017-04-07T09:53:15.873Z,1020.06
2017-04-07T09:54:26.877Z,1020.14
2017-04-07T09:55:37.877Z,1020.37
2017-04-07T09:56:49.078Z,1020.28
2017-04-07T09:58:00.136Z,1020.73
2017-04-07T09:59:11.138Z,1021.67
2017-04-07T10:00:22.135Z,1026.45
2017-04-07T10:01:33.145Z,1025.91
2017-04-07T10:02:44.144Z,1024.92
2017-04-07T10:03:55.397Z,1021.58
2017-04-07T10:05:06.611Z,1024.67
2017-04-07T10:06:17.610Z,1023.94
2017-04-07T10:07:28.606Z,1023.4
2017-04-07T10:08:39.613Z,1023.04
2017-04-07T10:09:50.670Z,1022.31
2017-04-07T10:11:01.877Z,1021.98
2017-04-07T10:12:12.889Z,1021.69
2017-04-07T10:13:24.099Z,1021.41
2017-04-07T10:14:35.107Z,1021.09
2017-04-07T10:15:46.526Z,1020.67
2017-04-07T10:16:57.552Z,1020.48
2017-04-07T10:18:08.569Z,1019.93
2017-04-07T10:19:19.589Z,1020.64
2017-04-07T10:20:30.662Z,1020.5
2017-04-07T10:21:41.867Z,1020.5
2017-04-07T10:22:52.884Z,1020.27
2017-04-07T10:24:03.898Z,1020.37
2017-04-07T10:25:14.909Z,1020.2
2017-04-07T10:26:26.382Z,1020.45
2017-04-07T10:27:37.400Z,1020.41
2017-04-07T10:28:48.641Z,1020.27
2017-04-07T10:29:59.658Z,1020.09
2017-04-07T10:31:10.887Z,1020.11
2017-04-07T10:32:21.963Z,1020.12
2017-04-07T10:33:32.973Z,1020.01
2017-04-07T10:34:44.008Z,1020.22
2017-04-07T10:35:55.020Z,1020.03
2017-04-07T10:37:06.033Z,1020.12
2017-04-07T10:38:17.092Z,1019.97
2017-04-07T10:39:28.116Z,1019.98
2017-04-07T10:40:39.138Z,1019.98
2017-04-07T10:41:50.160Z,1019.86
2017-04-07T10:43:01.168Z,1020.05
2017-04-07T10:44:12.433Z,1020.14
2017-04-07T10:45:23.445Z,1019.98
2017-04-07T10:46:34.458Z,1020
2017-04-07T10:47:45.673Z,1019.99
2017-04-07T10:48:56.885Z,1020.17
2017-04-07T10:50:08.352Z,1019.92
2017-04-07T10:51:19.366Z,1020.01
2017-04-07T10:52:30.397Z,1020.06
2017-04-07T10:53:41.395Z,1020.21
2017-04-07T10:54:52.419Z,1020.17
2017-04-07T10:56:03.679Z,1020.06
2017-04-07T10:57:14.686Z,1020.16
2017-04-07T10:58:25.683Z,1019.8
2017-04-07T10:59:36.697Z,1019.75
2017-04-07T11:00:47.915Z,1019.75
2017-04-07T11:01:59.200Z,1019.76
2017-04-07T11:03:10.610Z,1019.79
2017-04-07T11:04:21.626Z,1019.68
2017-04-07T11:05:32.627Z,1019.78
2017-04-07T11:06:43.645Z,1019.81
2017-04-07T11:07:54.707Z,1019.75
2017-04-07T11:09:05.721Z,1019.8
2017-04-07T11:10:17.143Z,1019.87
2017-04-07T11:11:28.355Z,1019.73
2017-04-07T11:12:39.367Z,1019.74
2017-04-07T11:13:50.618Z,1019.84
2017-04-07T11:15:01.622Z,1019.71
2017-04-07T11:16:12.632Z,1019.78
2017-04-07T11:17:23.647Z,1019.77
2017-04-07T11:18:34.670Z,1019.74
2017-04-07T11:19:45.733Z,1019.73
2017-04-07T11:20:56.733Z,1019.62
2017-04-07T11:22:08.156Z,1019.76
2017-04-07T11:23:19.175Z,1019.67
2017-04-07T11:24:30.184Z,1019.69
2017-04-07T11:25:41.669Z,1019.8
2017-04-07T11:26:52.895Z,1019.73
2017-04-07T11:28:03.920Z,1019.68
2017-04-07T11:29:14.954Z,1019.63
2017-04-07T11:30:25.983Z,1019.66
2017-04-07T11:31:37.039Z,1019.64
2017-04-07T11:32:48.067Z,1019.69
2017-04-07T11:33:59.286Z,1019.62
2017-04-07T11:35:10.304Z,1019.67
2017-04-07T11:36:21.543Z,1019.74
2017-04-07T11:37:32.609Z,1019.77
2017-04-07T11:38:43.616Z,1019.8
2017-04-07T11:39:54.822Z,1019.92
2017-04-07T11:41:06.055Z,1019.91
2017-04-07T11:42:17.062Z,1019.88
2017-04-07T11:43:28.136Z,1019.85
2017-04-07T11:44:39.144Z,1019.86
2017-04-07T11:45:50.150Z,1019.85
2017-04-07T11:47:01.370Z,1019.75
2017-04-07T11:48:12.382Z,1019.7
2017-04-07T11:49:23.650Z,1019.65
2017-04-07T11:50:34.665Z,1019.64
2017-04-07T11:51:45.679Z,1019.62
2017-04-07T11:52:56.697Z,1019.56
2017-04-07T11:54:07.911Z,1019.49
2017-04-07T11:55:19.200Z,1019.54
2017-04-07T11:56:30.210Z,1019.52
2017-04-07T11:57:41.227Z,1019.59
2017-04-07T11:58:52.235Z,1019.45
2017-04-07T12:00:03.453Z,1019.52
2017-04-07T12:01:14.508Z,1019.47
2017-04-07T12:02:25.517Z,1019.51
2017-04-07T12:03:36.726Z,1019.5
2017-04-07T12:04:47.935Z,1019.5
2017-04-07T12:05:58.957Z,1019.52
2017-04-07T12:07:10.019Z,1019.59
2017-04-07T12:08:21.020Z,1019.64
2017-04-07T12:09:32.031Z,1019.64
2017-04-07T12:10:43.040Z,1019.64
2017-04-07T12:11:54.055Z,1019.66
2017-04-07T12:13:05.527Z,1019.69
2017-04-07T12:14:16.561Z,1019.67
2017-04-07T12:15:27.580Z,1019.68
2017-04-07T12:16:38.587Z,1019.67
2017-04-07T12:17:49.584Z,1019.61
2017-04-07T12:19:00.643Z,1019.58
2017-04-07T12:20:11.660Z,1019.57
2017-04-07T12:21:22.870Z,1019.54
2017-04-07T12:22:33.879Z,1019.58
2017-04-07T12:23:44.894Z,1019.62
2017-04-07T12:24:55.965Z,1019.6
2017-04-07T12:26:06.974Z,1019.61
2017-04-07T12:27:17.991Z,1019.55
2017-04-07T12:28:29.210Z,1019.62
2017-04-07T12:29:40.246Z,1019.56
2017-04-07T12:30:51.515Z,1019.53
2017-04-07T12:32:02.728Z,1019.53
2017-04-07T12:33:13.740Z,1019.5
2017-04-07T12:34:24.959Z,1019.51
2017-04-07T12:35:36.025Z,1019.54
2017-04-07T12:36:47.042Z,1019.51
2017-04-07T12:37:58.265Z,1019.43
2017-04-07T12:39:09.272Z,1019.48
2017-04-07T12:40:20.293Z,1019.46
2017-04-07T12:41:31.566Z,1019.46
2017-04-07T12:42:42.583Z,1019.43
2017-04-07T12:43:53.794Z,1019.44
2017-04-07T12:45:04.826Z,1019.42
2017-04-07T12:46:15.831Z,1019.37
2017-04-07T12:47:27.092Z,1019.4
2017-04-07T12:48:38.104Z,1019.39
2017-04-07T12:49:49.114Z,1019.41
2017-04-07T12:51:00.124Z,1019.36
2017-04-07T12:52:11.137Z,1019.35
2017-04-07T12:53:22.409Z,1019.34
2017-04-07T12:54:33.415Z,1019.37
2017-04-07T12:55:44.445Z,1019.3
2017-04-07T12:56:55.447Z,1019.38
2017-04-07T12:58:06.462Z,1019.35
2017-04-07T12:59:17.544Z,1019.34
2017-04-07T13:00:28.752Z,1019.32
2017-04-07T13:01:39.761Z,1019.32
2017-04-07T13:02:50.764Z,1019.34
2017-04-07T13:04:01.774Z,1019.31
2017-04-07T13:05:13.044Z,1019.24
2017-04-07T13:06:24.061Z,1019.26
2017-04-07T13:07:35.071Z,1019.23
2017-04-07T13:08:46.088Z,1019.26
2017-04-07T13:09:57.315Z,1019.23
2017-04-07T13:11:08.383Z,1019.27
2017-04-07T13:12:19.397Z,1019.2
2017-04-07T13:13:30.608Z,1019.22
2017-04-07T13:14:41.617Z,1019.19
2017-04-07T13:15:52.633Z,1019.14
2017-04-07T13:17:03.905Z,1019.16
2017-04-07T13:18:14.906Z,1019.15
2017-04-07T13:19:25.903Z,1019.19
2017-04-07T13:20:36.908Z,1019.18
2017-04-07T13:21:47.924Z,1019.2
2017-04-07T13:22:58.977Z,1019.19
2017-04-07T13:24:09.997Z,1019.16
2017-04-07T13:25:21.216Z,1019.17
2017-04-07T13:26:32.220Z,1019.19
2017-04-07T13:27:43.425Z,1019.18
2017-04-07T13:28:54.478Z,1019.16
2017-04-07T13:30:05.487Z,1019.18
2017-04-07T13:31:16.501Z,1019.17
2017-04-07T13:32:27.509Z,1019.17
2017-04-07T13:33:38.530Z,1019.22
2017-04-07T13:34:49.614Z,1019.15
2017-04-07T13:36:00.622Z,1019.21
2017-04-07T13:37:12.052Z,1019.22
2017-04-07T13:38:23.067Z,1019.19
2017-04-07T13:39:34.078Z,1019.16
2017-04-07T13:40:45.337Z,1019.17
2017-04-07T13:41:56.348Z,1019.2
2017-04-07T13:43:07.363Z,1019.2
2017-04-07T13:44:18.559Z,1019.2
2017-04-07T13:45:29.575Z,1019.26
2017-04-07T13:46:40.629Z,1019.23
2017-04-07T13:47:51.638Z,1019.21
2017-04-07T13:49:02.645Z,1019.22
2017-04-07T13:50:13.850Z,1019.14
2017-04-07T13:51:24.864Z,1019.19
2017-04-07T13:52:36.122Z,1019.18
2017-04-07T13:53:47.336Z,1019.22
2017-04-07T13:54:58.341Z,1019.14
2017-04-07T13:56:09.345Z,1019.21
2017-04-07T13:57:20.399Z,1019.13
2017-04-07T13:58:31.654Z,1019.1
2017-04-07T13:59:42.656Z,1019.09
2017-04-07T14:00:53.672Z,1019.13
2017-04-07T14:02:04.677Z,1019.06
2017-04-07T14:03:15.686Z,1019.09
2017-04-07T14:04:26.757Z,1019.03
2017-04-07T14:05:37.761Z,1019.01
2017-04-07T14:06:48.772Z,1019.04
2017-04-07T14:07:59.991Z,1018.99
2017-04-07T14:09:11.004Z,1018.99
2017-04-07T14:10:22.475Z,1019.03
2017-04-07T14:11:33.477Z,1019
2017-04-07T14:12:44.681Z,1018.98
2017-04-07T14:13:55.709Z,1018.99
2017-04-07T14:15:06.733Z,1019.04
2017-04-07T14:16:17.797Z,1018.99
2017-04-07T14:17:28.802Z,1018.96
2017-04-07T14:18:40.012Z,1018.97
2017-04-07T14:19:51.033Z,1018.96
2017-04-07T14:21:02.223Z,1018.96
2017-04-07T14:22:13.490Z,1018.94
2017-04-07T14:23:24.539Z,1018.96